EPGDEPMO

Guest
Details From EPGD - LECH WALESA
To EPMO - MODLIN
Flight Number -
Tags generated
Created
Modified
Stats Distance 142 nm / 263 km
Max Altitude 13,200 ft / 4,023 m
Waypoints 3
Social Downloads 1
Likes 0
Share VATSIM

Download

Looking for another format? Having issues loading an existing format? Contact us
Advertisement - Login to hide

Notes

Basic altitude profile: - Ascent Rate: 2500ft/min - Ascent Speed: 250kts - Cruise Altitude: 35000ft - Cruise Speed: 420kts - Descent Rate: 1500ft/min - Descent Speed: 250kts Options: - Use NATs: yes - Use PACOTS: yes - Use low airways: yes - Use high airways: yes

Route

EPGD SOMOR EPMO

ID Type Via Altitude Latitude Longitude Leg Dist Tot Dist Heading (true) Name
O EPGD APT - 0 ft / 0 m 54.37617˚ 18.47188˚ - 0 nm - LECH WALESA
SOMOR FIX - 13,200 ft / 4,023 m 53.22694˚ 19.35028˚ 75 nm 75 nm 155° / 156° -
O EPMO APT - 0 ft / 0 m 52.45111˚ 20.65178˚ 66 nm 142 nm 134° / 135° MODLIN

Altitude Profile

Advertisement - Login to hide

EPGD

Details ICAO EPGD (GDN)
Name LECH WALESA
Region Poland
Timezone Europe/Warsaw (UTC+1.0)
Stats Elevation 489 ft / 149 m (AMSL)
Location 54.376167° 18.471884°
Runways 1
Magnetic Variation 5.450° E

METAR

EPGD 140430Z 16013KT 9999 BKN030 M00/M03 Q0990

Decode

TAF

TAF TAF EPGD 132330Z 1400/1424 16014KT CAVOK PROB40 TEMPO 1400/1411 18020G32KT BECMG 1403/1406 -SNRA BKN014 TEMPO 1403/1411 4000 SN BKN006 PROB30 TEMPO 1406/1410 1200 SN BKN003 BECMG 1411/1413 22012KT BKN020 PROB40 TEMPO 1411/1424 23015G25KT

Decode

Departure Runways

ID Width Length Bearing (true) Bearing (mag) Surface Threshold Offset Overrun Length
11 148 ft / 45 m 9,158 ft / 2,791 m 112.96° 107.51° Asphalt 0 ft / 0 m 0 ft / 0 m
29 148 ft / 45 m 9,158 ft / 2,791 m 293.00° 287.55° Asphalt 0 ft / 0 m 0 ft / 0 m

EPMO

Details ICAO EPMO (WMI)
Name MODLIN
Region Poland
Timezone Europe/Warsaw (UTC+1.0)
Stats Elevation 341 ft / 104 m (AMSL)
Location 52.451110° 20.651778°
Runways 1
Magnetic Variation 5.766° E

METAR

EPMO 140430Z 15010KT 110V180 CAVOK M00/M03 Q0997

Decode

TAF

TAF EPMO 132330Z 1400/1424 17010KT CAVOK BECMG 1404/1406 17015G28KT BKN014 TEMPO 1406/1410 2000 SN SNRA BKN005 BECMG 1409/1412 23010KT TEMPO 1410/1412 4000 RA RASN BR BKN007

Decode

Destination Runways

ID Width Length Bearing (true) Bearing (mag) Surface Threshold Offset Overrun Length
08 197 ft / 60 m 8,188 ft / 2,496 m 81.96° 76.19° Asphalt 0 ft / 0 m 0 ft / 0 m
26 197 ft / 60 m 8,188 ft / 2,496 m 261.99° 256.22° Asphalt 0 ft / 0 m 0 ft / 0 m

Popular Alternatives